This is the latest recevied weather packets stored in our database for station/object WX5KDM. If no packets are shown the sender has not sent any weather packets the latest 10 day(s).
| Time | Temp. | Humidity | Pressure | Rain* | Wind** | Luminosity | Snow |
|---|---|---|---|---|---|---|---|
| 1787978336 | 23.33° C | 74% | 1019 hPa | 0 mm | - | - | - |
| 1787978036 | 23.33° C | 74% | 1018.8 hPa | 0 mm | - | - | - |
| 1787977730 | 23.33° C | 74% | 1018.7 hPa | 0 mm | - | - | - |
| 1787977426 | 23.33° C | 74% | 1019 hPa | 0 mm | - | - | - |
| 1787977122 | 23.33° C | 74% | 1019 hPa | 0 mm | - | - | - |
| 1787976817 | 22.78° C | 75% | 1019.1 hPa | 0 mm | - | - | - |
| 1787976517 | 22.78° C | 76% | 1018.9 hPa | 0 mm | - | - | - |
| 1787976212 | 22.78° C | 75% | 1018.9 hPa | 0 mm | - | - | - |
| 1787975911 | 22.78° C | 75% | 1019 hPa | 0 mm | - | - | - |
| 1787975610 | 22.78° C | 76% | 1018.9 hPa | 0 mm | - | - | - |
| 1787975310 | 22.22° C | 78% | 1019 hPa | 0 mm | - | - | - |
| 1787975008 | 21.67° C | 78% | 1018.8 hPa | 0 mm | - | - | - |
| 1787974708 | 21.11° C | 82% | 1018.9 hPa | 0 mm | - | - | - |
| 1787974402 | 21.11° C | 82% | 1018.9 hPa | 0 mm | - | - | - |
| 1787974101 | 21.11° C | 83% | 1018.8 hPa | 0 mm | - | - | - |
| 1787973796 | 21.11° C | 83% | 1018.8 hPa | 0 mm | - | - | - |
| 1787973492 | 21.11° C | 83% | 1018.8 hPa | 0 mm | - | - | - |
| 1787973187 | 20.56° C | 84% | 1018.6 hPa | 0 mm | - | - | - |
| 1787972885 | 21.11° C | 83% | 1018.9 hPa | 0 mm | - | - | - |
| 1787972581 | 21.11° C | 82% | 1018.7 hPa | 0 mm | - | - | - |
| 1787972275 | 21.67° C | 82% | 1018.7 hPa | 0 mm | - | - | - |
| 1787971975 | 21.67° C | 80% | 1018.5 hPa | 0 mm | - | - | - |
| 1787971670 | 21.67° C | 80% | 1018.6 hPa | 0 mm | - | - | - |
| 1787971366 | 21.67° C | 80% | 1018.6 hPa | 0 mm | - | - | - |
| 1787971061 | 21.67° C | 79% | 1018.5 hPa | 0 mm | - | - | - |
* Rain latest hour (hover to see other rain measurements)
** Current wind speed in m/s (hover to see current wind gust speed)